createdAt,value
2022-09-28T00:02:10.940Z,96459.44
2022-09-28T00:05:12.853Z,96460.41
2022-09-28T00:08:15.086Z,96459.56
2022-09-28T00:11:20.911Z,96456.91
2022-09-28T00:14:22.694Z,96453.63
2022-09-28T00:17:26.953Z,96444.91
2022-09-28T00:20:28.925Z,96450.13
2022-09-28T00:23:30.813Z,96448.41
2022-09-28T00:26:34.158Z,96444.91
2022-09-28T00:29:38.245Z,96430.81
2022-09-28T00:32:40.025Z,96433.34
2022-09-28T00:35:41.887Z,96426.34
2022-09-28T00:38:46.706Z,96428.06
2022-09-28T00:41:50.489Z,96419.13
2022-09-28T00:44:53.195Z,96423.59
2022-09-28T00:47:58.213Z,96419.03
2022-09-28T00:51:03.039Z,96408.53
2022-09-28T00:54:05.841Z,96408.53
2022-09-28T00:57:09.705Z,96404.28
2022-09-28T01:00:12.542Z,96399.00
2022-09-28T01:03:14.578Z,96399.84
2022-09-28T01:06:18.284Z,96389.22
2022-09-28T01:09:21.483Z,96393.56
2022-09-28T01:12:24.886Z,96391.03
2022-09-28T01:15:28.321Z,96386.66
2022-09-28T01:18:35.638Z,96382.31
2022-09-28T01:21:48.213Z,96373.41
2022-09-28T01:24:54.746Z,96371.63
2022-09-28T01:28:00.030Z,96364.19
2022-09-28T01:31:08.189Z,96358.66
2022-09-28T01:34:13.796Z,96360.56
2022-09-28T01:37:18.477Z,96354.22
2022-09-28T01:40:23.895Z,96354.53
2022-09-28T01:43:28.266Z,96351.66
2022-09-28T01:46:33.441Z,96337.66
2022-09-28T01:49:38.835Z,96334.28
2022-09-28T01:52:44.751Z,96334.91
2022-09-28T01:55:48.746Z,96334.28
2022-09-28T01:58:55.490Z,96329.94
2022-09-28T02:01:58.976Z,96321.13
2022-09-28T02:05:03.270Z,96320.28
2022-09-28T02:08:07.825Z,96307.97
2022-09-28T02:11:14.225Z,96305.97
2022-09-28T02:14:20.788Z,96304.66
2022-09-28T02:17:22.775Z,96301.72
2022-09-28T02:20:25.311Z,96302.44
2022-09-28T02:23:29.341Z,96301.59
2022-09-28T02:26:32.380Z,96294.38
2022-09-28T02:29:35.549Z,96292.56
2022-09-28T02:32:40.507Z,96288.09
2022-09-28T02:35:43.195Z,96285.47
2022-09-28T02:38:44.995Z,96281.72
2022-09-28T02:41:54.041Z,96282.59
2022-09-28T02:45:10.999Z,96275.38
2022-09-28T02:48:35.917Z,96283.53
2022-09-28T02:51:45.078Z,96273.38
2022-09-28T02:54:55.055Z,96276.34
2022-09-28T02:58:03.805Z,96273.78
2022-09-28T03:01:12.691Z,96275.72
2022-09-28T03:04:18.977Z,96271.13
2022-09-28T03:07:24.732Z,96273.69
2022-09-28T03:10:31.015Z,96271.03
2022-09-28T03:13:38.289Z,96269.22
2022-09-28T03:16:44.921Z,96273.38
2022-09-28T03:19:46.701Z,96258.53
2022-09-28T03:23:06.021Z,96273.59
2022-09-28T03:26:11.510Z,96269.16
2022-09-28T03:29:13.731Z,96272.72
2022-09-28T03:32:17.011Z,96267.53
2022-09-28T03:35:19.309Z,96266.56
2022-09-28T03:38:21.692Z,96265.94
2022-09-28T03:41:24.395Z,96258.00
2022-09-28T03:44:26.382Z,96264.25
2022-09-28T03:47:30.658Z,96265.31
2022-09-28T03:50:32.409Z,96265.56
2022-09-28T03:53:34.048Z,96270.75
2022-09-28T03:56:35.902Z,96267.03
2022-09-28T03:59:37.772Z,96262.47
2022-09-28T04:02:41.116Z,96266.38
2022-09-28T04:05:48.931Z,96265.88
2022-09-28T04:08:51.206Z,96265.31
2022-09-28T04:12:03.716Z,96257.81
2022-09-28T04:15:06.960Z,96266.06
2022-09-28T04:18:11.305Z,96255.16
2022-09-28T04:21:13.972Z,96258.94
2022-09-28T04:24:15.829Z,96261.06
2022-09-28T04:27:36.177Z,96273.75
2022-09-28T04:30:38.103Z,96272.16
2022-09-28T04:33:41.319Z,96270.59
2022-09-28T04:36:46.042Z,96272.50
2022-09-28T04:39:48.715Z,96268.78
2022-09-28T04:42:53.487Z,96274.19
2022-09-28T04:45:58.140Z,96275.03
2022-09-28T04:49:01.821Z,96265.41
2022-09-28T04:52:03.963Z,96269.63
2022-09-28T04:55:06.461Z,96281.91
2022-09-28T04:58:09.074Z,96282.66
2022-09-28T05:01:12.406Z,96278.66
2022-09-28T05:04:19.470Z,96291.16
2022-09-28T05:07:23.413Z,96282.78
2022-09-28T05:10:25.491Z,96285.22
2022-09-28T05:13:27.538Z,96291.69
2022-09-28T05:16:31.041Z,96292.44
2022-09-28T05:19:35.172Z,96285.22
2022-09-28T05:22:37.318Z,96294.91
2022-09-28T05:25:39.120Z,96291.91
2022-09-28T05:28:41.197Z,96299.03
2022-09-28T05:31:43.254Z,96278.88
2022-09-28T05:34:46.504Z,96284.06
2022-09-28T05:37:48.778Z,96285.78
2022-09-28T05:40:51.399Z,96283.75
2022-09-28T05:43:55.037Z,96288.22
2022-09-28T05:46:57.247Z,96280.25
2022-09-28T05:50:00.570Z,96277.72
2022-09-28T05:53:03.597Z,96282.06
2022-09-28T05:56:05.604Z,96281.00
2022-09-28T05:59:07.451Z,96286.50
2022-09-28T06:02:10.182Z,96286.63
2022-09-28T06:05:13.367Z,96287.47
2022-09-28T06:08:15.106Z,96297.97
2022-09-28T06:11:16.912Z,96310.47
2022-09-28T06:14:20.808Z,96307.06
2022-09-28T06:17:23.712Z,96312.38
2022-09-28T06:20:29.397Z,96303.59
2022-09-28T06:23:31.369Z,96310.69
2022-09-28T06:26:33.259Z,96314.34
2022-09-28T06:29:35.339Z,96317.00
2022-09-28T06:32:38.058Z,96315.44
2022-09-28T06:35:42.573Z,96316.28
2022-09-28T06:38:45.280Z,96319.66
2022-09-28T06:41:47.116Z,96335.16
2022-09-28T06:44:49.038Z,96325.50
2022-09-28T06:47:53.082Z,96334.00
2022-09-28T06:51:00.103Z,96337.59
2022-09-28T06:54:02.005Z,96342.72
2022-09-28T06:57:03.926Z,96336.47
2022-09-28T07:00:06.038Z,96335.63
2022-09-28T07:03:08.503Z,96347.91
2022-09-28T07:06:12.761Z,96342.78
2022-09-28T07:09:30.655Z,96345.25
2022-09-28T07:12:35.493Z,96353.09
2022-09-28T07:15:38.301Z,96356.38
2022-09-28T07:18:40.542Z,96356.94
2022-09-28T07:21:46.155Z,96365.63
2022-09-28T07:24:50.033Z,96369.03
2022-09-28T07:27:55.567Z,96369.47
2022-09-28T07:30:57.697Z,96369.25
2022-09-28T07:33:59.414Z,96367.91
2022-09-28T07:37:02.893Z,96367.69
2022-09-28T07:40:24.277Z,96361.53
2022-09-28T07:43:26.393Z,96374.47
2022-09-28T07:46:29.601Z,96368.19
2022-09-28T07:49:32.992Z,96371.41
2022-09-28T07:52:37.270Z,96368.63
2022-09-28T07:55:39.469Z,96377.44
2022-09-28T07:58:41.253Z,96378.19
2022-09-28T08:01:43.513Z,96381.78
2022-09-28T08:04:45.801Z,96381.38
2022-09-28T08:07:54.839Z,96386.47
2022-09-28T08:10:56.806Z,96389.00
2022-09-28T08:14:00.291Z,96390.09
2022-09-28T08:17:02.159Z,96395.72
2022-09-28T08:20:22.836Z,96400.25
2022-09-28T08:23:34.383Z,96404.53
2022-09-28T08:26:36.213Z,96403.69
2022-09-28T08:29:38.277Z,96407.38
2022-09-28T08:32:42.605Z,96412.78
2022-09-28T08:35:46.947Z,96413.84
2022-09-28T08:38:52.254Z,96418.75
2022-09-28T08:41:59.246Z,96419.16
2022-09-28T08:45:07.275Z,96422.97
2022-09-28T08:48:30.759Z,96418.19
2022-09-28T08:51:37.303Z,96432.19
2022-09-28T08:54:46.353Z,96430.00
2022-09-28T08:57:52.252Z,96429.56
2022-09-28T09:00:57.875Z,96432.63
2022-09-28T09:04:00.136Z,96433.59
2022-09-28T09:07:19.755Z,96440.09
2022-09-28T09:10:38.877Z,96445.38
2022-09-28T09:13:52.631Z,96449.53
2022-09-28T09:17:00.966Z,96444.22
2022-09-28T09:20:09.446Z,96452.28
2022-09-28T09:23:17.124Z,96448.34
2022-09-28T09:26:25.754Z,96458.53
2022-09-28T09:29:31.889Z,96457.38
2022-09-28T09:32:53.573Z,96464.19
2022-09-28T09:36:05.446Z,96467.56
2022-09-28T09:39:17.382Z,96465.88
2022-09-28T09:42:30.836Z,96466.84
2022-09-28T09:45:41.071Z,96469.50
2022-09-28T09:48:47.338Z,96473.50
2022-09-28T09:51:54.487Z,96472.78
2022-09-28T09:54:59.281Z,96470.84
2022-09-28T09:58:05.408Z,96481.59
2022-09-28T10:01:14.704Z,96486.91
2022-09-28T10:04:20.017Z,96482.66
2022-09-28T10:07:25.917Z,96490.91
2022-09-28T10:10:28.848Z,96498.34
2022-09-28T10:13:35.746Z,96493.69
2022-09-28T10:16:37.751Z,96490.63
2022-09-28T10:19:39.780Z,96493.28
2022-09-28T10:22:42.096Z,96489.78
2022-09-28T10:25:46.318Z,96497.19
2022-09-28T10:28:52.479Z,96499.31
2022-09-28T10:31:54.765Z,96506.53
2022-09-28T10:35:19.599Z,96504.81
2022-09-28T10:38:22.488Z,96510.44
2022-09-28T10:41:27.722Z,96511.28
2022-09-28T10:44:32.315Z,96513.66
2022-09-28T10:47:35.688Z,96512.47
2022-09-28T10:50:39.281Z,96521.50
2022-09-28T10:53:41.399Z,96517.22
2022-09-28T10:56:44.500Z,96517.44
2022-09-28T10:59:47.705Z,96522.34
2022-09-28T11:02:50.021Z,96518.63
2022-09-28T11:05:56.796Z,96520.34
2022-09-28T11:09:00.650Z,96520.97
2022-09-28T11:12:04.559Z,96520.56
2022-09-28T11:15:17.223Z,96530.97
2022-09-28T11:18:22.609Z,96533.22
2022-09-28T11:21:25.605Z,96528.00
2022-09-28T11:24:27.654Z,96528.84
2022-09-28T11:27:30.105Z,96539.47
2022-09-28T11:30:35.038Z,96530.84
2022-09-28T11:33:39.018Z,96534.34
2022-09-28T11:36:51.915Z,96538.63
2022-09-28T11:39:59.403Z,96534.06
2022-09-28T11:43:08.269Z,96541.91
2022-09-28T11:46:18.451Z,96540.00
2022-09-28T11:49:27.020Z,96539.59
2022-09-28T11:52:35.146Z,96542.78
2022-09-28T11:55:41.252Z,96539.25
2022-09-28T11:58:45.367Z,96542.97
2022-09-28T12:01:52.097Z,96551.28
2022-09-28T12:04:56.990Z,96550.00
2022-09-28T12:08:02.496Z,96548.28
2022-09-28T12:11:09.785Z,96560.84
2022-09-28T12:14:17.900Z,96562.63
2022-09-28T12:17:24.027Z,96566.25
2022-09-28T12:20:27.440Z,96559.97
2022-09-28T12:23:31.307Z,96558.50
2022-09-28T12:26:37.350Z,96560.72
2022-09-28T12:29:41.462Z,96556.34
2022-09-28T12:32:46.995Z,96555.19
2022-09-28T12:35:57.282Z,96556.06
2022-09-28T12:39:21.845Z,96552.53
2022-09-28T12:42:41.354Z,96549.00
2022-09-28T12:46:10.595Z,96557.59
2022-09-28T12:53:02.347Z,96562.28
2022-09-28T12:56:11.217Z,96562.28
2022-09-28T12:59:18.600Z,96560.03
2022-09-28T13:02:38.490Z,96568.97
2022-09-28T13:05:49.571Z,96567.59
2022-09-28T13:09:01.532Z,96568.56
2022-09-28T13:12:12.252Z,96565.78
2022-09-28T13:15:23.843Z,96576.03
2022-09-28T13:18:30.022Z,96575.22
2022-09-28T13:21:39.363Z,96566.25
2022-09-28T13:24:45.339Z,96566.50
2022-09-28T13:27:50.958Z,96568.91
2022-09-28T13:30:55.554Z,96572.19
2022-09-28T13:33:58.184Z,96572.47
2022-09-28T13:37:22.052Z,96577.16
2022-09-28T13:40:48.843Z,96571.84
2022-09-28T13:44:04.701Z,96573.25
2022-09-28T13:47:24.130Z,96584.09
2022-09-28T13:50:35.044Z,96583.34
2022-09-28T13:53:46.389Z,96581.91
2022-09-28T13:56:51.144Z,96582.16
2022-09-28T13:59:59.146Z,96586.44
2022-09-28T14:03:05.090Z,96586.91
2022-09-28T14:06:12.023Z,96594.00
2022-09-28T14:09:26.228Z,96590.59
2022-09-28T14:12:44.631Z,96601.31
2022-09-28T14:15:46.752Z,96596.44
2022-09-28T14:18:50.964Z,96596.31
2022-09-28T14:22:04.325Z,96592.22
2022-09-28T14:25:15.337Z,96598.75
2022-09-28T14:28:27.080Z,96604.41
2022-09-28T14:31:29.730Z,96605.13
2022-09-28T14:34:37.481Z,96609.72
2022-09-28T14:38:03.722Z,96608.22
2022-09-28T14:41:11.837Z,96610.47
2022-09-28T14:44:14.479Z,96611.22
2022-09-28T14:47:26.583Z,96614.31
2022-09-28T14:50:31.346Z,96613.09
2022-09-28T14:53:39.132Z,96614.44
2022-09-28T14:56:45.572Z,96617.72
2022-09-28T14:59:48.013Z,96617.66
2022-09-28T15:02:52.627Z,96620.13
2022-09-28T15:05:55.388Z,96621.69
2022-09-28T15:08:57.279Z,96615.78
2022-09-28T15:12:01.305Z,96611.06
2022-09-28T15:15:05.772Z,96616.94
2022-09-28T15:18:22.048Z,96615.66
2022-09-28T15:21:24.233Z,96619.53
2022-09-28T15:24:31.777Z,96617.94
2022-09-28T15:27:39.135Z,96618.44
2022-09-28T15:30:41.226Z,96612.38
2022-09-28T15:34:01.209Z,96615.72
2022-09-28T15:37:09.145Z,96617.97
2022-09-28T15:40:12.862Z,96619.69
2022-09-28T15:43:24.289Z,96627.53
2022-09-28T15:46:32.684Z,96639.34
2022-09-28T15:49:39.049Z,96633.94
2022-09-28T15:52:46.616Z,96635.84
2022-09-28T15:55:50.351Z,96653.72
2022-09-28T15:59:19.853Z,96655.88
2022-09-28T16:02:26.206Z,96649.88
2022-09-28T16:05:37.874Z,96656.06
2022-09-28T16:08:42.159Z,96656.16
2022-09-28T16:11:44.061Z,96663.41
2022-09-28T16:14:49.031Z,96661.19
2022-09-28T16:17:52.430Z,96665.97
2022-09-28T16:20:56.401Z,96664.50
2022-09-28T16:23:58.795Z,96663.66
2022-09-28T16:27:02.432Z,96657.59
2022-09-28T16:30:16.963Z,96662.22
2022-09-28T16:33:27.270Z,96666.91
2022-09-28T16:36:39.197Z,96668.16
2022-09-28T16:39:40.882Z,96676.25
2022-09-28T16:42:48.937Z,96672.00
2022-09-28T16:45:52.626Z,96676.25
2022-09-28T16:48:55.776Z,96674.00
2022-09-28T16:51:57.657Z,96671.78
2022-09-28T16:58:39.797Z,96689.63
2022-09-28T17:01:43.953Z,96690.47
2022-09-28T17:04:47.780Z,96693.56
2022-09-28T17:07:56.391Z,96698.78
2022-09-28T17:11:24.006Z,96697.28
2022-09-28T17:14:27.334Z,96704.72
2022-09-28T17:17:31.567Z,96702.19
2022-09-28T17:20:36.769Z,96707.38
2022-09-28T17:23:38.850Z,96708.97
2022-09-28T17:26:44.612Z,96706.22
2022-09-28T17:29:47.104Z,96717.41
2022-09-28T17:32:51.649Z,96714.75
2022-09-28T17:35:58.401Z,96724.59
2022-09-28T17:39:00.646Z,96717.91
2022-09-28T17:42:02.956Z,96724.16
2022-09-28T17:45:06.594Z,96728.53
2022-09-28T17:48:12.653Z,96733.94
2022-09-28T17:51:14.763Z,96734.78
2022-09-28T17:54:21.159Z,96740.28
2022-09-28T17:57:23.427Z,96734.25
2022-09-28T18:00:27.522Z,96742.09
2022-09-28T18:03:35.687Z,96743.63
2022-09-28T18:06:41.614Z,96737.56
2022-09-28T18:09:44.611Z,96743.50
2022-09-28T18:12:46.624Z,96743.63
2022-09-28T18:15:50.749Z,96742.78
2022-09-28T18:18:58.400Z,96742.78
2022-09-28T18:22:01.624Z,96748.94
2022-09-28T18:25:03.741Z,96744.47
2022-09-28T18:28:05.592Z,96744.25
2022-09-28T18:31:08.924Z,96762.63
2022-09-28T18:34:13.878Z,96754.88
2022-09-28T18:37:15.814Z,96765.72
2022-09-28T18:40:17.878Z,96758.50
2022-09-28T18:43:23.860Z,96763.06
2022-09-28T18:46:27.826Z,96760.63
2022-09-28T18:49:31.892Z,96761.47
2022-09-28T18:52:35.515Z,96767.63
2022-09-28T18:55:39.256Z,96766.78
2022-09-28T18:58:47.669Z,96772.09
2022-09-28T19:01:50.111Z,96773.97
2022-09-28T19:04:53.517Z,96773.91
2022-09-28T19:07:55.386Z,96780.06
2022-09-28T19:11:04.340Z,96778.44
2022-09-28T19:14:06.297Z,96784.59
2022-09-28T19:17:08.580Z,96772.28
2022-09-28T19:20:12.065Z,96781.88
2022-09-28T19:23:13.995Z,96781.88
2022-09-28T19:26:16.801Z,96779.50
2022-09-28T19:29:21.711Z,96791.28
2022-09-28T19:32:23.495Z,96784.47
2022-09-28T19:35:26.548Z,96793.38
2022-09-28T19:38:29.110Z,96789.88
2022-09-28T19:41:44.984Z,96789.88
2022-09-28T19:44:47.645Z,96791.69
2022-09-28T19:47:49.966Z,96797.09
2022-09-28T19:50:59.098Z,96794.22
2022-09-28T19:54:01.760Z,96792.53
2022-09-28T19:57:08.859Z,96798.59
2022-09-28T20:00:11.619Z,96801.34
2022-09-28T20:03:13.471Z,96798.59
2022-09-28T20:06:17.505Z,96798.59
2022-09-28T20:09:25.190Z,96797.00
2022-09-28T20:12:27.387Z,96789.88
2022-09-28T20:15:29.230Z,96806.66
2022-09-28T20:18:32.335Z,96805.81
2022-09-28T20:21:35.730Z,96810.94
2022-09-28T20:24:37.518Z,96817.84
2022-09-28T20:27:39.829Z,96816.81
2022-09-28T20:30:43.279Z,96818.41
2022-09-28T20:33:45.395Z,96820.09
2022-09-28T20:36:49.756Z,96823.06
2022-09-28T20:39:51.721Z,96819.66
2022-09-28T20:42:53.507Z,96825.16
2022-09-28T20:45:56.064Z,96811.97
2022-09-28T20:48:59.571Z,96815.59
2022-09-28T20:52:03.281Z,96818.25
2022-09-28T20:55:05.862Z,96812.09
2022-09-28T20:58:07.922Z,96806.78
2022-09-28T21:01:11.153Z,96814.94
2022-09-28T21:04:13.405Z,96813.25
2022-09-28T21:07:17.230Z,96815.91
2022-09-28T21:10:19.096Z,96824.50
2022-09-28T21:13:21.110Z,96823.66
2022-09-28T21:16:23.163Z,96821.09
2022-09-28T21:19:25.129Z,96823.75
2022-09-28T21:22:30.146Z,96823.88
2022-09-28T21:25:31.964Z,96825.94
2022-09-28T21:28:34.594Z,96828.81
2022-09-28T21:31:37.922Z,96829.13
2022-09-28T21:34:39.871Z,96831.09
2022-09-28T21:37:43.013Z,96831.19
2022-09-28T21:40:45.330Z,96835.13
2022-09-28T21:43:47.329Z,96831.78
2022-09-28T21:46:49.759Z,96841.94
2022-09-28T21:49:55.717Z,96841.94
2022-09-28T21:53:12.590Z,96847.63
2022-09-28T21:56:15.708Z,96847.44
2022-09-28T21:59:17.409Z,96843.38
2022-09-28T22:02:20.997Z,96846.13
2022-09-28T22:05:22.918Z,96844.69
2022-09-28T22:08:26.715Z,96845.84
2022-09-28T22:11:31.766Z,96850.56
2022-09-28T22:14:46.387Z,96847.47
2022-09-28T22:17:48.753Z,96848.50
2022-09-28T22:20:58.634Z,96850.22
2022-09-28T22:24:04.079Z,96848.38
2022-09-28T22:27:06.130Z,96852.19
2022-09-28T22:30:08.610Z,96849.88
2022-09-28T22:33:10.494Z,96861.44
2022-09-28T22:36:15.179Z,96860.50
2022-09-28T22:39:24.973Z,96854.09
2022-09-28T22:42:26.784Z,96856.19
2022-09-28T22:45:28.425Z,96856.25
2022-09-28T22:48:30.901Z,96861.28
2022-09-28T22:51:32.789Z,96864.69
2022-09-28T22:54:37.680Z,96859.66
2022-09-28T22:57:40.025Z,96863.34
2022-09-28T23:00:44.376Z,96862.19
2022-09-28T23:03:46.826Z,96871.28
2022-09-28T23:06:49.564Z,96866.66
2022-09-28T23:09:53.227Z,96859.34
2022-09-28T23:12:55.339Z,96866.38
2022-09-28T23:15:57.810Z,96866.28
2022-09-28T23:18:59.767Z,96866.09
2022-09-28T23:22:01.727Z,96864.28
2022-09-28T23:25:05.459Z,96861.09
2022-09-28T23:28:07.339Z,96859.72
2022-09-28T23:31:09.845Z,96863.44
2022-09-28T23:34:11.658Z,96864.63
2022-09-28T23:37:14.217Z,96866.72
2022-09-28T23:40:17.767Z,96862.16
2022-09-28T23:43:19.873Z,96857.44
2022-09-28T23:46:24.723Z,96863.25
2022-09-28T23:49:29.341Z,96862.88
2022-09-28T23:52:31.432Z,96869.03
2022-09-28T23:55:35.885Z,96864.94
2022-09-28T23:58:38.428Z,96863.34
